createdAt,value
2018-08-16T00:00:48.632Z,99.90
2018-08-16T00:03:16.384Z,99.90
2018-08-16T00:05:44.360Z,99.90
2018-08-16T00:08:12.111Z,99.90
2018-08-16T00:10:39.861Z,99.90
2018-08-16T00:13:07.660Z,99.90
2018-08-16T00:15:35.466Z,99.90
2018-08-16T00:18:03.301Z,99.90
2018-08-16T00:20:31.092Z,99.90
2018-08-16T00:22:58.876Z,99.90
2018-08-16T00:25:26.700Z,99.90
2018-08-16T00:27:54.506Z,99.90
2018-08-16T00:30:22.374Z,99.90
2018-08-16T00:32:50.154Z,99.90
2018-08-16T00:35:17.970Z,99.90
2018-08-16T00:37:45.842Z,99.90
2018-08-16T00:40:14.969Z,99.90
2018-08-16T00:42:42.791Z,99.90
2018-08-16T00:45:11.267Z,99.90
2018-08-16T00:47:39.031Z,99.90
2018-08-16T00:50:12.559Z,99.90
2018-08-16T00:52:40.486Z,99.90
2018-08-16T00:55:09.721Z,99.90
2018-08-16T00:57:37.944Z,99.90
2018-08-16T01:00:07.344Z,99.90
2018-08-16T01:02:35.208Z,99.90
2018-08-16T01:05:03.058Z,99.90
2018-08-16T01:07:30.806Z,99.90
2018-08-16T01:09:58.597Z,99.90
2018-08-16T01:12:26.696Z,99.90
2018-08-16T01:14:54.789Z,99.90
2018-08-16T01:17:22.726Z,99.90
2018-08-16T01:19:50.491Z,99.90
2018-08-16T01:22:22.206Z,99.90
2018-08-16T01:24:49.945Z,99.90
2018-08-16T01:27:24.162Z,99.90
2018-08-16T01:29:55.996Z,99.90
2018-08-16T01:32:25.499Z,99.90
2018-08-16T01:34:57.454Z,99.90
2018-08-16T01:37:25.870Z,99.90
2018-08-16T01:39:53.660Z,99.90
2018-08-16T01:42:22.269Z,99.90
2018-08-16T01:44:52.748Z,99.90
2018-08-16T01:47:20.520Z,99.90
2018-08-16T01:49:48.263Z,99.90
2018-08-16T01:52:18.815Z,99.90
2018-08-16T01:54:48.380Z,99.90
2018-08-16T01:57:16.142Z,99.90
2018-08-16T01:59:43.892Z,99.90
2018-08-16T02:02:11.656Z,99.90
2018-08-16T02:04:39.432Z,99.90
2018-08-16T02:07:07.245Z,99.90
2018-08-16T02:09:35.004Z,99.90
2018-08-16T02:12:02.755Z,99.90
2018-08-16T02:14:30.487Z,99.90
2018-08-16T02:16:58.269Z,99.90
2018-08-16T02:19:26.066Z,99.90
2018-08-16T02:21:53.988Z,99.90
2018-08-16T02:24:21.883Z,99.90
2018-08-16T02:26:49.683Z,99.90
2018-08-16T02:29:17.408Z,99.90
2018-08-16T02:31:45.162Z,99.90
2018-08-16T02:34:12.942Z,99.90
2018-08-16T02:36:40.712Z,99.90
2018-08-16T02:39:09.410Z,99.90
2018-08-16T02:41:37.611Z,99.90
2018-08-16T02:44:05.629Z,99.90
2018-08-16T02:46:33.361Z,99.90
2018-08-16T02:49:01.115Z,99.90
2018-08-16T02:51:28.845Z,99.90
2018-08-16T02:53:56.518Z,99.90
2018-08-16T02:56:24.341Z,99.90
2018-08-16T02:58:52.062Z,99.90
2018-08-16T03:01:19.874Z,99.90
2018-08-16T03:03:47.635Z,99.90
2018-08-16T03:06:15.395Z,99.90
2018-08-16T03:08:43.101Z,99.90
2018-08-16T03:11:10.845Z,99.90
2018-08-16T03:13:38.628Z,99.90
2018-08-16T03:16:06.646Z,99.90
2018-08-16T03:18:34.535Z,99.90
2018-08-16T03:21:02.297Z,99.90
2018-08-16T03:23:30.063Z,99.90
2018-08-16T03:25:57.831Z,99.90
2018-08-16T03:28:25.571Z,99.90
2018-08-16T03:30:53.387Z,99.90
2018-08-16T03:33:21.093Z,99.90
2018-08-16T03:35:48.845Z,99.90
2018-08-16T03:38:16.572Z,99.90
2018-08-16T03:40:44.311Z,99.90
2018-08-16T03:43:12.061Z,99.90
2018-08-16T03:45:39.806Z,99.90
2018-08-16T03:48:07.670Z,99.90
2018-08-16T03:50:35.410Z,99.90
2018-08-16T03:53:03.198Z,99.90
2018-08-16T03:55:30.907Z,99.90
2018-08-16T03:57:58.623Z,99.90
2018-08-16T04:00:26.321Z,99.90
2018-08-16T04:02:54.050Z,99.90
2018-08-16T04:05:21.811Z,99.90
2018-08-16T04:07:49.558Z,99.90
2018-08-16T04:10:17.295Z,99.90
2018-08-16T04:12:45.005Z,99.90
2018-08-16T04:15:12.780Z,99.90
2018-08-16T04:17:40.541Z,99.90
2018-08-16T04:20:08.282Z,99.90
2018-08-16T04:22:36.105Z,99.90
2018-08-16T04:25:04.514Z,99.90
2018-08-16T04:27:32.217Z,99.90
2018-08-16T04:29:59.977Z,99.90
2018-08-16T04:32:27.743Z,99.90
2018-08-16T04:34:55.499Z,99.90
2018-08-16T04:37:23.210Z,99.90
2018-08-16T04:39:50.979Z,99.90
2018-08-16T04:42:18.719Z,99.90
2018-08-16T04:44:46.523Z,99.90
2018-08-16T04:47:14.277Z,99.90
2018-08-16T04:49:42.091Z,99.90
2018-08-16T04:52:09.829Z,99.90
2018-08-16T04:54:37.597Z,99.90
2018-08-16T04:57:05.513Z,99.90
2018-08-16T04:59:33.315Z,99.90
2018-08-16T05:02:01.151Z,99.90
2018-08-16T05:04:28.943Z,99.90
2018-08-16T05:06:56.846Z,99.90
2018-08-16T05:09:24.649Z,99.90
2018-08-16T05:11:52.471Z,99.90
2018-08-16T05:14:20.261Z,99.90
2018-08-16T05:16:48.061Z,99.90
2018-08-16T05:19:15.842Z,99.90
2018-08-16T05:21:43.703Z,99.90
2018-08-16T05:24:11.533Z,99.90
2018-08-16T05:26:39.303Z,99.90
2018-08-16T05:29:07.181Z,99.90
2018-08-16T05:31:35.068Z,99.90
2018-08-16T05:34:02.969Z,99.90
2018-08-16T05:36:30.803Z,99.90
2018-08-16T05:38:58.697Z,99.90
2018-08-16T05:41:26.503Z,99.90
2018-08-16T05:43:54.356Z,99.90
2018-08-16T05:46:22.234Z,99.90
2018-08-16T05:48:49.967Z,99.90
2018-08-16T05:51:17.827Z,99.90
2018-08-16T05:53:45.663Z,99.90
2018-08-16T05:56:13.399Z,99.90
2018-08-16T05:58:41.103Z,99.90
2018-08-16T06:01:08.843Z,99.90
2018-08-16T06:03:36.597Z,99.90
2018-08-16T06:06:04.364Z,99.90
2018-08-16T06:08:32.113Z,99.90
2018-08-16T06:10:59.868Z,99.90
2018-08-16T06:13:27.623Z,99.90
2018-08-16T06:15:55.385Z,99.90
2018-08-16T06:18:23.217Z,99.90
2018-08-16T06:20:50.981Z,99.90
2018-08-16T06:23:18.813Z,99.90
2018-08-16T06:25:46.655Z,99.90
2018-08-16T06:28:14.443Z,99.90
2018-08-16T06:30:42.248Z,99.90
2018-08-16T06:33:09.990Z,99.90
2018-08-16T06:35:37.949Z,99.90
2018-08-16T06:38:06.433Z,99.90
2018-08-16T06:40:34.214Z,99.90
2018-08-16T06:43:01.963Z,99.90
2018-08-16T06:45:30.031Z,99.90
2018-08-16T06:47:57.778Z,99.90
2018-08-16T06:50:25.563Z,99.90
2018-08-16T06:52:53.392Z,99.90
2018-08-16T06:55:21.168Z,99.90
2018-08-16T06:57:49.016Z,99.90
2018-08-16T07:00:16.885Z,99.90
2018-08-16T07:02:44.733Z,99.90
2018-08-16T07:05:12.667Z,99.90
2018-08-16T07:07:40.463Z,99.90
2018-08-16T07:10:10.145Z,99.90
2018-08-16T07:12:37.900Z,99.90
2018-08-16T07:15:10.265Z,99.90
2018-08-16T07:17:38.075Z,99.90
2018-08-16T07:20:06.784Z,99.90
2018-08-16T07:22:34.498Z,99.90
2018-08-16T07:25:02.238Z,99.90
2018-08-16T07:27:30.748Z,99.90
2018-08-16T07:29:59.430Z,99.90
2018-08-16T07:32:27.303Z,99.90
2018-08-16T07:34:55.029Z,99.90
2018-08-16T07:37:22.773Z,99.90
2018-08-16T07:39:50.527Z,99.90
2018-08-16T07:42:18.495Z,99.90
2018-08-16T07:44:46.243Z,99.90
2018-08-16T07:47:13.968Z,99.90
2018-08-16T07:49:41.764Z,99.90
2018-08-16T07:52:09.647Z,99.90
2018-08-16T07:54:37.409Z,99.90
2018-08-16T07:57:05.336Z,99.90
2018-08-16T07:59:33.229Z,99.90
2018-08-16T08:02:01.041Z,99.90
2018-08-16T08:04:28.919Z,99.90
2018-08-16T08:06:56.725Z,99.90
2018-08-16T08:09:24.667Z,99.90
2018-08-16T08:11:52.211Z,99.90
2018-08-16T08:14:19.996Z,99.90
2018-08-16T08:16:47.777Z,99.90
2018-08-16T08:19:15.543Z,99.90
2018-08-16T08:21:43.341Z,99.90
2018-08-16T08:24:11.115Z,99.90
2018-08-16T08:26:39.007Z,99.90
2018-08-16T08:29:06.806Z,99.90
2018-08-16T08:31:34.584Z,99.90
2018-08-16T08:34:02.328Z,99.90
2018-08-16T08:36:41.570Z,99.90
2018-08-16T08:39:10.620Z,99.90
2018-08-16T08:41:38.763Z,99.90
2018-08-16T08:46:50.280Z,99.90
2018-08-16T08:49:19.264Z,99.90
2018-08-16T08:51:47.937Z,99.90
2018-08-16T08:55:09.662Z,99.90
2018-08-16T08:57:48.633Z,99.90
2018-08-16T09:00:16.432Z,99.90
2018-08-16T09:02:44.196Z,99.90
2018-08-16T09:05:12.016Z,99.90
2018-08-16T09:07:39.849Z,99.90
2018-08-16T09:11:18.043Z,99.90
2018-08-16T09:14:11.798Z,99.90
2018-08-16T09:16:40.727Z,99.90
2018-08-16T09:19:09.303Z,99.90
2018-08-16T09:21:37.383Z,99.90
2018-08-16T09:24:05.265Z,99.90
2018-08-16T09:26:40.212Z,99.90
2018-08-16T09:29:19.128Z,99.90
2018-08-16T09:31:58.105Z,99.90
2018-08-16T09:34:26.513Z,99.90
2018-08-16T09:36:54.265Z,99.90
2018-08-16T09:39:22.101Z,99.90
2018-08-16T09:41:49.814Z,99.90
2018-08-16T09:44:17.540Z,99.90
2018-08-16T09:47:13.039Z,99.90
2018-08-16T09:49:42.935Z,99.90
2018-08-16T09:52:11.532Z,99.90
2018-08-16T09:54:39.620Z,99.60
2018-08-16T09:57:08.543Z,99.90
2018-08-16T09:59:36.245Z,99.90
2018-08-16T10:02:05.295Z,98.90
2018-08-16T10:04:32.972Z,98.10
2018-08-16T10:07:00.715Z,98.60
2018-08-16T10:09:29.704Z,99.70
2018-08-16T10:11:58.299Z,99.70
2018-08-16T10:14:26.091Z,99.50
2018-08-16T10:16:53.875Z,99.50
2018-08-16T10:19:22.150Z,98.50
2018-08-16T10:21:49.918Z,97.90
2018-08-16T10:24:17.769Z,95.20
2018-08-16T10:26:45.507Z,95.60
2018-08-16T10:29:13.305Z,95.90
2018-08-16T10:31:41.043Z,96.40
2018-08-16T10:34:08.824Z,94.50
2018-08-16T10:36:36.551Z,95.80
2018-08-16T10:39:08.268Z,95.90
2018-08-16T10:41:36.157Z,94.40
2018-08-16T10:44:04.560Z,93.40
2018-08-16T10:46:32.543Z,93.00
2018-08-16T10:49:00.253Z,91.60
2018-08-16T10:51:28.043Z,92.30
2018-08-16T10:53:55.829Z,93.40
2018-08-16T10:56:23.592Z,92.50
2018-08-16T10:58:51.359Z,93.70
2018-08-16T11:01:19.179Z,92.70
2018-08-16T11:03:46.899Z,93.90
2018-08-16T11:06:14.673Z,93.60
2018-08-16T11:08:42.438Z,92.50
2018-08-16T11:11:10.465Z,92.30
2018-08-16T11:13:38.253Z,94.70
2018-08-16T11:16:05.993Z,91.80
2018-08-16T11:18:33.693Z,89.70
2018-08-16T11:21:01.432Z,89.00
2018-08-16T11:23:29.297Z,86.50
2018-08-16T11:25:57.090Z,85.90
2018-08-16T11:28:24.857Z,89.40
2018-08-16T11:30:52.616Z,85.60
2018-08-16T11:33:20.400Z,84.90
2018-08-16T11:35:48.132Z,83.50
2018-08-16T11:38:15.938Z,83.80
2018-08-16T11:40:43.762Z,81.60
2018-08-16T11:43:11.557Z,81.00
2018-08-16T11:45:39.380Z,81.90
2018-08-16T11:48:07.229Z,82.30
2018-08-16T11:50:35.006Z,80.00
2018-08-16T11:53:02.818Z,78.40
2018-08-16T11:55:30.570Z,81.30
2018-08-16T11:57:58.369Z,80.40
2018-08-16T12:00:26.243Z,80.80
2018-08-16T12:02:54.024Z,81.70
2018-08-16T12:05:21.780Z,80.30
2018-08-16T12:07:49.572Z,78.20
2018-08-16T12:10:17.416Z,78.30
2018-08-16T12:12:45.243Z,77.80
2018-08-16T12:15:14.038Z,77.90
2018-08-16T12:17:41.822Z,78.00
2018-08-16T12:20:09.585Z,79.50
2018-08-16T12:22:37.495Z,79.30
2018-08-16T12:25:06.062Z,80.00
2018-08-16T12:27:33.869Z,77.00
2018-08-16T12:30:01.614Z,77.50
2018-08-16T12:32:29.364Z,76.10
2018-08-16T12:34:57.170Z,75.20
2018-08-16T12:37:24.805Z,74.40
2018-08-16T12:39:52.555Z,74.70
2018-08-16T12:42:20.438Z,72.50
2018-08-16T12:44:48.116Z,74.00
2018-08-16T12:47:15.893Z,71.90
2018-08-16T12:49:43.605Z,72.60
2018-08-16T12:52:11.385Z,71.70
2018-08-16T12:54:39.099Z,70.00
2018-08-16T12:57:06.861Z,69.50
2018-08-16T12:59:34.628Z,73.70
2018-08-16T13:02:02.377Z,69.90
2018-08-16T13:04:30.127Z,71.10
2018-08-16T13:06:57.905Z,72.00
2018-08-16T13:09:25.617Z,70.90
2018-08-16T13:11:53.427Z,69.60
2018-08-16T13:14:21.243Z,69.70
2018-08-16T13:16:49.107Z,68.40
2018-08-16T13:19:16.827Z,67.40
2018-08-16T13:21:44.605Z,67.00
2018-08-16T13:24:12.397Z,66.50
2018-08-16T13:26:40.161Z,65.30
2018-08-16T13:29:08.076Z,66.90
2018-08-16T13:31:35.827Z,64.00
2018-08-16T13:34:03.659Z,64.60
2018-08-16T13:36:31.478Z,64.00
2018-08-16T13:39:00.328Z,63.20
2018-08-16T13:41:28.092Z,64.20
2018-08-16T13:43:55.826Z,63.50
2018-08-16T13:49:31.876Z,63.80
2018-08-16T13:51:59.671Z,62.60
2018-08-16T13:54:27.461Z,63.20
2018-08-16T13:56:55.206Z,61.70
2018-08-16T13:59:22.947Z,62.60
2018-08-16T14:01:50.798Z,60.40
2018-08-16T14:04:18.502Z,60.90
2018-08-16T14:06:46.244Z,59.60
2018-08-16T14:09:14.025Z,60.00
2018-08-16T14:11:41.833Z,60.40
2018-08-16T14:14:09.635Z,59.60
2018-08-16T14:16:37.447Z,60.20
2018-08-16T14:19:05.509Z,58.90
2018-08-16T14:21:33.270Z,58.50
2018-08-16T14:24:01.045Z,58.70
2018-08-16T14:26:28.803Z,57.40
2018-08-16T14:28:56.589Z,58.60
2018-08-16T14:31:24.361Z,59.20
2018-08-16T14:33:52.353Z,58.50
2018-08-16T14:36:20.097Z,59.10
2018-08-16T14:38:47.919Z,60.00
2018-08-16T14:41:15.672Z,58.90
2018-08-16T14:43:43.391Z,57.90
2018-08-16T14:46:11.131Z,57.70
2018-08-16T14:48:38.850Z,57.80
2018-08-16T14:51:06.633Z,58.00
2018-08-16T14:53:34.436Z,57.30
2018-08-16T14:56:02.212Z,57.80
2018-08-16T14:58:30.026Z,57.70
2018-08-16T15:00:57.757Z,57.30
2018-08-16T15:03:25.501Z,58.60
2018-08-16T15:05:53.232Z,58.40
2018-08-16T15:08:21.121Z,59.20
2018-08-16T15:10:49.158Z,59.60
2018-08-16T15:13:16.892Z,59.20
2018-08-16T15:15:44.611Z,59.70
2018-08-16T15:18:12.396Z,61.60
2018-08-16T15:20:40.143Z,60.60
2018-08-16T15:23:14.503Z,59.50
2018-08-16T15:25:48.073Z,59.90
2018-08-16T15:28:16.539Z,61.40
2018-08-16T15:30:44.315Z,62.60
2018-08-16T15:33:12.040Z,61.20
2018-08-16T15:35:39.787Z,61.80
2018-08-16T15:38:07.526Z,62.20
2018-08-16T15:40:35.337Z,61.90
2018-08-16T15:43:03.061Z,62.60
2018-08-16T15:45:30.827Z,63.60
2018-08-16T15:47:58.557Z,64.70
2018-08-16T15:50:26.363Z,65.50
2018-08-16T15:52:54.119Z,64.30
2018-08-16T15:55:21.866Z,65.50
2018-08-16T15:57:49.736Z,64.40
2018-08-16T16:00:17.533Z,64.50
2018-08-16T16:05:38.338Z,64.90
2018-08-16T16:08:06.135Z,65.50
2018-08-16T16:10:33.917Z,65.60
2018-08-16T16:13:02.005Z,65.30
2018-08-16T16:15:29.833Z,64.90
2018-08-16T16:17:57.572Z,63.60
2018-08-16T16:20:25.479Z,65.50
2018-08-16T16:22:53.203Z,65.30
2018-08-16T16:25:21.161Z,65.60
2018-08-16T16:27:49.113Z,65.60
2018-08-16T16:30:17.021Z,65.70
2018-08-16T16:32:44.961Z,66.00
2018-08-16T16:35:12.875Z,66.10
2018-08-16T16:37:40.814Z,66.10
2018-08-16T16:40:09.955Z,64.10
2018-08-16T16:42:38.634Z,64.20
2018-08-16T16:45:06.866Z,64.20
2018-08-16T16:47:34.715Z,64.20
2018-08-16T16:50:02.731Z,64.60
2018-08-16T16:52:30.597Z,64.00
2018-08-16T16:54:58.465Z,64.00
2018-08-16T16:57:26.344Z,64.00
2018-08-16T16:59:54.309Z,64.20
2018-08-16T17:02:22.157Z,63.80
2018-08-16T17:04:50.020Z,63.40
2018-08-16T17:07:17.981Z,63.80
2018-08-16T17:09:45.980Z,62.10
2018-08-16T17:12:13.887Z,64.10
2018-08-16T17:14:41.753Z,64.70
2018-08-16T17:17:09.763Z,63.60
2018-08-16T17:19:37.696Z,63.80
2018-08-16T17:22:06.229Z,63.60
2018-08-16T17:24:34.154Z,63.60
2018-08-16T17:27:02.061Z,64.50
2018-08-16T17:29:30.024Z,64.30
2018-08-16T17:31:58.005Z,64.20
2018-08-16T17:34:25.846Z,64.00
2018-08-16T17:36:53.878Z,63.70
2018-08-16T17:39:21.749Z,64.80
2018-08-16T17:41:49.673Z,65.50
2018-08-16T17:44:17.633Z,65.70
2018-08-16T17:46:45.647Z,67.30
2018-08-16T17:49:13.545Z,67.50
2018-08-16T17:51:41.469Z,68.90
2018-08-16T17:54:09.331Z,70.00
2018-08-16T17:56:37.198Z,72.40
2018-08-16T17:59:05.091Z,76.20
2018-08-16T18:01:32.976Z,80.90
2018-08-16T18:04:00.861Z,85.90
2018-08-16T18:06:28.738Z,90.40
2018-08-16T18:08:56.703Z,92.40
2018-08-16T18:11:24.631Z,94.50
2018-08-16T18:13:52.575Z,96.60
2018-08-16T18:16:20.459Z,98.40
2018-08-16T18:18:48.326Z,99.90
2018-08-16T18:21:16.178Z,99.90
2018-08-16T18:23:44.065Z,99.90
2018-08-16T18:26:11.932Z,99.90
2018-08-16T18:28:39.780Z,99.90
2018-08-16T18:31:07.656Z,99.90
2018-08-16T18:33:35.631Z,99.90
2018-08-16T18:36:03.780Z,99.90
2018-08-16T18:38:31.773Z,99.90
2018-08-16T18:40:59.749Z,99.90
2018-08-16T18:43:27.686Z,99.90
2018-08-16T18:45:55.690Z,99.90
2018-08-16T18:48:23.583Z,99.90
2018-08-16T18:50:51.549Z,99.90
2018-08-16T18:53:19.509Z,99.90
2018-08-16T18:55:47.417Z,99.90
2018-08-16T18:58:15.343Z,99.90
2018-08-16T19:00:43.289Z,99.90
2018-08-16T19:03:11.183Z,99.90
2018-08-16T19:05:39.314Z,99.90
2018-08-16T19:08:07.173Z,99.90
2018-08-16T19:10:35.163Z,99.90
2018-08-16T19:13:03.103Z,99.90
2018-08-16T19:15:31.032Z,99.90
2018-08-16T19:17:59.056Z,99.90
2018-08-16T19:20:33.571Z,99.90
2018-08-16T19:23:01.572Z,99.90
2018-08-16T19:25:29.494Z,99.90
2018-08-16T19:27:57.485Z,99.90
2018-08-16T19:30:25.363Z,99.90
2018-08-16T19:32:53.405Z,99.90
2018-08-16T19:35:21.417Z,99.90
2018-08-16T19:37:49.459Z,99.90
2018-08-16T19:40:17.535Z,99.90
2018-08-16T19:42:45.434Z,99.90
2018-08-16T19:45:13.558Z,99.90
2018-08-16T19:47:41.409Z,99.90
2018-08-16T19:50:10.207Z,99.90
2018-08-16T19:52:38.223Z,99.90
2018-08-16T19:55:06.335Z,99.90
2018-08-16T19:57:34.750Z,99.90
2018-08-16T20:00:02.794Z,99.90
2018-08-16T20:02:30.735Z,99.90
2018-08-16T20:04:58.686Z,99.90
2018-08-16T20:07:26.643Z,99.90
2018-08-16T20:09:54.601Z,99.90
2018-08-16T20:12:22.514Z,99.90
2018-08-16T20:14:50.443Z,99.90
2018-08-16T20:17:18.447Z,99.90
2018-08-16T20:19:46.429Z,99.90
2018-08-16T20:22:17.427Z,99.90
2018-08-16T20:24:45.629Z,99.90
2018-08-16T20:27:13.803Z,99.90
2018-08-16T20:29:42.037Z,99.90
2018-08-16T20:32:10.199Z,99.90
2018-08-16T20:34:38.121Z,99.90
2018-08-16T20:37:06.071Z,99.90
2018-08-16T20:39:34.051Z,99.90
2018-08-16T20:42:02.289Z,99.90
2018-08-16T20:44:30.692Z,99.90
2018-08-16T20:46:58.662Z,99.90
2018-08-16T20:49:26.638Z,99.90
2018-08-16T20:51:54.668Z,99.90
2018-08-16T20:54:22.638Z,99.90
2018-08-16T20:56:50.666Z,99.90
2018-08-16T20:59:18.609Z,99.90
2018-08-16T21:01:46.657Z,99.90
2018-08-16T21:04:14.713Z,99.90
2018-08-16T21:06:42.647Z,99.90
2018-08-16T21:09:11.169Z,99.90
2018-08-16T21:11:39.419Z,99.90
2018-08-16T21:14:07.522Z,99.90
2018-08-16T21:16:35.513Z,99.90
2018-08-16T21:19:03.375Z,99.90
2018-08-16T21:21:31.369Z,99.90
2018-08-16T21:23:59.379Z,99.90
2018-08-16T21:26:27.363Z,99.90
2018-08-16T21:28:55.528Z,99.90
2018-08-16T21:31:23.521Z,99.90
2018-08-16T21:33:51.501Z,99.90
2018-08-16T21:36:19.648Z,99.90
2018-08-16T21:38:47.622Z,99.90
2018-08-16T21:41:15.653Z,99.90
2018-08-16T21:43:43.630Z,99.90
2018-08-16T21:46:11.597Z,99.90
2018-08-16T21:48:39.517Z,99.90
2018-08-16T21:51:07.459Z,99.90
2018-08-16T21:53:35.390Z,99.90
2018-08-16T21:56:03.657Z,99.90
2018-08-16T21:58:31.603Z,99.90
2018-08-16T22:01:03.875Z,99.90
2018-08-16T22:03:31.759Z,99.90
2018-08-16T22:06:10.163Z,99.90
2018-08-16T22:08:45.017Z,99.90
2018-08-16T22:11:13.007Z,99.90
2018-08-16T22:13:41.061Z,99.90
2018-08-16T22:16:09.325Z,99.90
2018-08-16T22:18:37.751Z,99.90
2018-08-16T22:21:05.782Z,99.90
2018-08-16T22:23:33.764Z,99.90
2018-08-16T22:26:02.174Z,99.90
2018-08-16T22:28:30.112Z,99.90
2018-08-16T22:30:58.368Z,99.90
2018-08-16T22:33:26.426Z,99.90
2018-08-16T22:35:54.590Z,99.90
2018-08-16T22:38:22.480Z,99.90
2018-08-16T22:40:50.422Z,99.90
2018-08-16T22:43:18.418Z,99.90
2018-08-16T22:46:17.208Z,99.90
2018-08-16T22:48:45.054Z,99.90
2018-08-16T22:51:12.874Z,99.90
2018-08-16T22:53:40.710Z,99.90
2018-08-16T22:56:08.601Z,99.90
2018-08-16T22:58:36.456Z,99.90
2018-08-16T23:01:04.346Z,99.90
2018-08-16T23:03:32.325Z,99.90
2018-08-16T23:06:00.179Z,99.90
2018-08-16T23:08:27.981Z,99.90
2018-08-16T23:10:55.810Z,99.90
2018-08-16T23:13:23.657Z,99.90
2018-08-16T23:15:51.521Z,99.90
2018-08-16T23:18:19.420Z,99.90
2018-08-16T23:20:47.279Z,99.90
2018-08-16T23:23:15.176Z,99.90
2018-08-16T23:25:43.109Z,99.90
2018-08-16T23:28:10.957Z,99.90
2018-08-16T23:30:38.907Z,99.90
2018-08-16T23:33:07.380Z,99.90
2018-08-16T23:35:35.316Z,99.90
2018-08-16T23:38:03.167Z,99.90
2018-08-16T23:40:31.047Z,99.90
2018-08-16T23:42:58.968Z,99.90
2018-08-16T23:45:26.819Z,99.90
2018-08-16T23:48:05.935Z,99.90
2018-08-16T23:50:33.805Z,99.90
2018-08-16T23:53:01.726Z,99.90
2018-08-16T23:55:29.815Z,99.90
2018-08-16T23:57:57.708Z,99.90
